createdAt,value
2018-08-25T00:00:12.736Z,10.97
2018-08-25T00:02:41.473Z,11.63
2018-08-25T00:05:10.748Z,11.23
2018-08-25T00:07:39.267Z,11.00
2018-08-25T00:10:08.106Z,12.13
2018-08-25T00:12:36.592Z,12.17
2018-08-25T00:15:05.151Z,13.93
2018-08-25T00:17:33.562Z,10.17
2018-08-25T00:20:02.125Z,11.65
2018-08-25T00:22:30.813Z,9.90
2018-08-25T00:24:59.297Z,11.20
2018-08-25T00:27:27.878Z,14.73
2018-08-25T00:29:56.847Z,14.50
2018-08-25T00:32:25.461Z,11.33
2018-08-25T00:39:51.456Z,14.90
2018-08-25T00:42:20.112Z,13.03
2018-08-25T00:44:48.827Z,12.87
2018-08-25T00:47:17.353Z,19.80
2018-08-25T00:49:45.892Z,15.00
2018-08-25T00:52:14.553Z,14.23
2018-08-25T00:54:43.300Z,11.77
2018-08-25T00:57:11.959Z,11.90
2018-08-25T00:59:40.527Z,15.30
2018-08-25T01:02:09.000Z,10.50
2018-08-25T01:04:37.465Z,13.67
2018-08-25T01:07:05.932Z,14.00
2018-08-25T01:09:34.425Z,11.40
2018-08-25T01:12:02.808Z,12.55
2018-08-25T01:14:31.530Z,14.50
2018-08-25T01:16:59.997Z,10.00
2018-08-25T01:19:28.754Z,10.35
2018-08-25T01:21:57.698Z,10.10
2018-08-25T01:24:26.331Z,11.83
2018-08-25T01:26:55.128Z,11.70
2018-08-25T01:29:23.707Z,10.17
2018-08-25T01:31:52.397Z,9.77
2018-08-25T01:34:21.090Z,12.67
2018-08-25T01:36:49.664Z,15.33
2018-08-25T01:39:18.293Z,12.57
2018-08-25T01:41:46.934Z,11.03
2018-08-25T01:44:15.631Z,12.83
2018-08-25T01:46:44.205Z,12.00
2018-08-25T01:49:12.812Z,14.00
2018-08-25T01:51:41.482Z,14.40
2018-08-25T01:54:10.167Z,12.15
2018-08-25T01:56:38.846Z,14.50
2018-08-25T01:59:07.281Z,11.77
2018-08-25T02:01:36.889Z,15.43
2018-08-25T02:04:05.419Z,15.20
2018-08-25T02:06:33.969Z,15.13
2018-08-25T02:09:02.791Z,14.80
2018-08-25T02:11:31.573Z,13.70
2018-08-25T02:14:00.108Z,16.90
2018-08-25T02:16:28.837Z,12.53
2018-08-25T02:18:57.531Z,13.23
2018-08-25T02:21:26.229Z,12.40
2018-08-25T02:23:54.802Z,12.53
2018-08-25T02:26:23.478Z,13.97
2018-08-25T02:28:52.290Z,10.93
2018-08-25T02:31:21.045Z,12.63
2018-08-25T02:33:49.809Z,13.77
2018-08-25T02:36:18.558Z,11.90
2018-08-25T02:38:47.693Z,16.90
2018-08-25T02:41:16.293Z,15.00
2018-08-25T02:43:44.826Z,11.37
2018-08-25T02:46:13.354Z,14.35
2018-08-25T02:48:41.977Z,15.20
2018-08-25T02:51:10.878Z,12.03
2018-08-25T02:53:39.528Z,13.50
2018-08-25T02:56:08.105Z,13.60
2018-08-25T02:58:36.516Z,14.00
2018-08-25T03:01:06.078Z,13.30
2018-08-25T03:03:34.634Z,11.73
2018-08-25T03:06:03.626Z,14.00
2018-08-25T03:08:32.311Z,13.40
2018-08-25T03:11:01.188Z,14.10
2018-08-25T03:13:30.947Z,11.10
2018-08-25T03:15:59.760Z,10.93
2018-08-25T03:18:28.471Z,18.82
2018-08-25T03:20:57.358Z,13.03
2018-08-25T03:23:26.341Z,13.23
2018-08-25T03:25:54.871Z,14.17
2018-08-25T03:28:24.054Z,12.55
2018-08-25T03:30:53.019Z,12.87
2018-08-25T03:33:21.784Z,18.83
2018-08-25T03:35:50.589Z,13.00
2018-08-25T03:38:19.510Z,17.07
2018-08-25T03:40:48.374Z,13.10
2018-08-25T03:43:17.249Z,12.50
2018-08-25T03:45:46.279Z,13.67
2018-08-25T03:48:15.014Z,13.77
2018-08-25T03:50:43.531Z,11.20
2018-08-25T03:53:12.409Z,12.73
2018-08-25T03:55:40.887Z,13.10
2018-08-25T03:58:09.696Z,10.17
2018-08-25T04:00:38.363Z,12.80
2018-08-25T04:03:07.433Z,11.90
2018-08-25T04:05:36.124Z,10.80
2018-08-25T04:08:04.694Z,11.77
2018-08-25T04:10:33.748Z,17.00
2018-08-25T04:13:02.442Z,13.10
2018-08-25T04:15:31.255Z,12.30
2018-08-25T04:18:00.269Z,12.20
2018-08-25T04:20:28.995Z,13.80
2018-08-25T04:22:58.007Z,16.30
2018-08-25T04:25:26.780Z,12.83
2018-08-25T04:27:55.555Z,14.57
2018-08-25T04:30:24.359Z,12.50
2018-08-25T04:32:54.061Z,14.63
2018-08-25T04:35:23.572Z,12.43
2018-08-25T04:37:52.400Z,12.17
2018-08-25T04:40:21.200Z,13.17
2018-08-25T04:42:49.942Z,14.10
2018-08-25T04:45:18.636Z,12.60
2018-08-25T04:47:47.322Z,11.93
2018-08-25T04:50:16.142Z,12.70
2018-08-25T04:52:44.679Z,13.43
2018-08-25T04:55:13.365Z,13.22
2018-08-25T04:57:42.075Z,13.30
2018-08-25T05:00:11.066Z,13.13
2018-08-25T05:02:40.240Z,13.77
2018-08-25T05:05:09.065Z,16.02
2018-08-25T05:07:37.987Z,13.67
2018-08-25T05:10:06.918Z,19.00
2018-08-25T05:12:35.981Z,20.03
2018-08-25T05:15:04.854Z,11.10
2018-08-25T05:17:33.890Z,14.60
2018-08-25T05:20:02.784Z,14.17
2018-08-25T05:22:31.871Z,13.30
2018-08-25T05:25:00.839Z,15.13
2018-08-25T05:27:29.835Z,14.73
2018-08-25T05:29:58.784Z,17.67
2018-08-25T05:32:27.909Z,16.20
2018-08-25T05:34:56.627Z,14.60
2018-08-25T05:37:25.303Z,13.00
2018-08-25T05:39:53.909Z,15.30
2018-08-25T05:42:22.710Z,12.90
2018-08-25T05:44:51.451Z,13.10
2018-08-25T05:47:19.967Z,12.70
2018-08-25T05:49:49.081Z,12.57
2018-08-25T05:52:17.713Z,15.77
2018-08-25T05:54:47.544Z,13.83
2018-08-25T05:57:16.635Z,13.90
2018-08-25T05:59:45.959Z,14.33
2018-08-25T06:02:15.587Z,12.20
2018-08-25T06:04:45.213Z,11.90
2018-08-25T06:07:14.469Z,17.63
2018-08-25T06:09:43.539Z,14.05
2018-08-25T06:12:12.944Z,14.90
2018-08-25T06:14:42.152Z,15.77
2018-08-25T06:17:11.277Z,13.30
2018-08-25T06:19:41.589Z,12.77
2018-08-25T06:22:10.833Z,14.27
2018-08-25T06:24:41.357Z,16.80
2018-08-25T06:27:14.476Z,15.27
2018-08-25T06:29:46.506Z,13.53
2018-08-25T06:32:15.545Z,14.20
2018-08-25T06:34:45.204Z,15.10
2018-08-25T06:37:15.763Z,12.07
2018-08-25T06:42:24.565Z,15.47
2018-08-25T06:44:53.850Z,13.67
2018-08-25T06:47:22.950Z,16.47
2018-08-25T06:49:52.976Z,12.60
2018-08-25T06:52:29.714Z,13.40
2018-08-25T06:55:01.577Z,11.43
2018-08-25T06:57:31.049Z,13.33
2018-08-25T08:40:38.966Z,14.87
2018-08-25T08:43:08.378Z,10.67
2018-08-25T08:45:37.593Z,12.07
2018-08-25T08:50:41.213Z,8.57
2018-08-25T08:53:10.174Z,11.37
2018-08-25T08:55:39.525Z,9.93
2018-08-25T08:58:08.729Z,11.50
2018-08-25T09:00:37.640Z,10.13
2018-08-25T09:03:08.052Z,12.00
2018-08-25T09:05:38.755Z,9.80
2018-08-25T09:08:07.765Z,11.40
2018-08-25T09:10:37.397Z,11.07
2018-08-25T09:13:06.251Z,9.27
2018-08-25T09:15:35.624Z,10.70
2018-08-25T09:18:04.755Z,13.13
2018-08-25T09:20:37.113Z,10.07
2018-08-25T09:23:06.900Z,10.20
2018-08-25T09:25:36.466Z,10.57
2018-08-25T09:28:05.894Z,9.17
2018-08-25T09:30:35.224Z,9.80
2018-08-25T09:33:04.364Z,10.80
2018-08-25T09:35:33.135Z,8.90
2018-08-25T09:38:02.118Z,10.40
2018-08-25T09:40:31.138Z,9.60
2018-08-25T09:42:59.908Z,9.97
2018-08-25T09:45:28.620Z,13.20
2018-08-25T09:47:58.413Z,9.23
2018-08-25T09:50:27.547Z,10.23
2018-08-25T09:52:57.160Z,9.17
2018-08-25T09:55:26.825Z,9.73
2018-08-25T09:58:08.238Z,8.40
2018-08-25T10:00:46.630Z,8.07
2018-08-25T10:12:37.697Z,10.33
2018-08-25T10:15:07.849Z,8.50
2018-08-25T10:33:24.146Z,9.57
2018-08-25T10:35:53.428Z,9.38
2018-08-25T10:38:24.031Z,8.17
2018-08-25T10:40:53.770Z,9.73
2018-08-25T10:43:24.309Z,10.63
2018-08-25T10:45:55.124Z,9.43
2018-08-25T10:48:24.440Z,7.40
2018-08-25T10:50:53.653Z,9.73
2018-08-25T10:53:23.148Z,10.17
2018-08-25T10:55:52.533Z,10.60
2018-08-25T10:58:21.780Z,8.58
2018-08-25T11:00:51.178Z,8.10
2018-08-25T11:03:21.204Z,7.87
2018-08-25T11:05:50.091Z,8.10
2018-08-25T11:08:19.375Z,9.20
2018-08-25T11:10:48.693Z,9.80
2018-08-25T11:13:18.684Z,8.00
2018-08-25T11:15:47.871Z,7.93
2018-08-25T11:18:17.090Z,8.70
2018-08-25T11:20:45.848Z,9.10
2018-08-25T11:23:14.724Z,7.87
2018-08-25T11:25:43.421Z,8.37
2018-08-25T11:28:12.282Z,9.33
2018-08-25T11:30:41.354Z,10.20
2018-08-25T11:33:10.366Z,7.97
2018-08-25T11:35:40.155Z,8.87
2018-08-25T11:38:10.289Z,8.40
2018-08-25T11:40:41.180Z,9.00
2018-08-25T11:43:10.998Z,7.20
2018-08-25T11:45:40.466Z,9.23
2018-08-25T11:48:10.395Z,8.37
2018-08-25T11:50:41.719Z,8.20
2018-08-25T11:53:10.890Z,9.83
2018-08-25T11:55:40.084Z,8.03
2018-08-25T11:58:09.901Z,8.20
2018-08-25T12:00:40.584Z,8.40
2018-08-25T12:03:09.917Z,8.93
2018-08-25T12:05:39.736Z,8.70
2018-08-25T12:08:08.837Z,9.20
2018-08-25T12:10:38.252Z,8.60
2018-08-25T12:13:08.343Z,9.00
2018-08-25T12:15:37.629Z,15.07
2018-08-25T12:18:06.656Z,8.07
2018-08-25T12:20:35.405Z,7.00
2018-08-25T12:23:04.536Z,7.17
2018-08-25T12:25:35.147Z,8.50
2018-08-25T12:28:06.216Z,6.33
2018-08-25T12:30:38.607Z,7.47
2018-08-25T12:33:08.340Z,7.07
2018-08-25T12:35:38.474Z,7.10
2018-08-25T12:38:10.120Z,8.53
2018-08-25T12:40:39.589Z,7.30
2018-08-25T12:43:09.913Z,6.50
2018-08-25T12:45:38.858Z,7.40
2018-08-25T12:48:08.416Z,7.80
2018-08-25T12:50:37.859Z,7.67
2018-08-25T12:53:06.917Z,6.70
2018-08-25T12:55:42.981Z,7.07
2018-08-25T12:58:12.055Z,8.97
2018-08-25T13:00:40.899Z,7.40
2018-08-25T13:03:09.861Z,6.65
2018-08-25T13:05:39.084Z,7.03
2018-08-25T13:08:08.156Z,9.20
2018-08-25T13:10:36.901Z,6.90
2018-08-25T13:13:05.905Z,7.50
2018-08-25T13:15:34.744Z,7.13
2018-08-25T13:18:03.777Z,7.10
2018-08-25T13:20:32.324Z,7.80
2018-08-25T13:23:01.093Z,7.20
2018-08-25T13:25:29.810Z,7.77
2018-08-25T13:27:58.599Z,7.80
2018-08-25T13:30:27.261Z,7.10
2018-08-25T13:32:55.681Z,8.43
2018-08-25T13:35:24.437Z,7.47
2018-08-25T13:37:53.088Z,12.37
2018-08-25T13:40:21.737Z,6.70
2018-08-25T13:42:50.451Z,6.77
2018-08-25T13:45:18.900Z,8.40
2018-08-25T13:47:47.569Z,6.53
2018-08-25T13:50:16.287Z,7.37
2018-08-25T13:52:45.304Z,6.87
2018-08-25T13:55:13.999Z,8.80
2018-08-25T13:57:43.347Z,6.47
2018-08-25T14:00:12.147Z,6.33
2018-08-25T14:02:40.932Z,6.40
2018-08-25T14:05:09.764Z,6.30
2018-08-25T14:07:38.392Z,6.43
2018-08-25T14:10:07.121Z,6.20
2018-08-25T14:12:35.725Z,7.27
2018-08-25T14:15:04.458Z,6.53
2018-08-25T14:17:33.092Z,7.20
2018-08-25T14:20:01.691Z,6.37
2018-08-25T14:22:30.170Z,6.20
2018-08-25T14:24:58.901Z,6.50
2018-08-25T14:27:27.679Z,7.63
2018-08-25T14:29:56.570Z,6.50
2018-08-25T14:32:25.237Z,6.80
2018-08-25T14:34:53.949Z,6.60
2018-08-25T14:37:22.436Z,6.87
2018-08-25T14:39:51.112Z,6.60
2018-08-25T14:42:20.065Z,6.50
2018-08-25T14:44:49.331Z,6.40
2018-08-25T14:47:18.047Z,6.50
2018-08-25T14:49:46.589Z,7.40
2018-08-25T14:52:15.621Z,7.33
2018-08-25T14:54:44.350Z,7.00
2018-08-25T14:57:13.125Z,6.20
2018-08-25T14:59:41.932Z,6.30
2018-08-25T15:02:10.510Z,6.70
2018-08-25T15:04:39.180Z,6.67
2018-08-25T15:07:07.698Z,7.00
2018-08-25T15:09:36.306Z,8.30
2018-08-25T15:12:05.179Z,6.92
2018-08-25T15:14:34.245Z,7.77
2018-08-25T15:17:03.012Z,6.90
2018-08-25T15:19:31.645Z,7.50
2018-08-25T15:22:00.320Z,7.27
2018-08-25T15:24:28.808Z,8.20
2018-08-25T15:26:57.474Z,7.00
2018-08-25T15:29:26.173Z,6.83
2018-08-25T15:31:54.642Z,6.60
2018-08-25T15:34:23.381Z,6.97
2018-08-25T15:36:52.050Z,8.40
2018-08-25T15:39:20.766Z,9.10
2018-08-25T15:41:49.378Z,11.90
2018-08-25T15:44:17.972Z,9.18
2018-08-25T15:46:46.358Z,7.17
2018-08-25T15:49:15.038Z,8.73
2018-08-25T15:51:43.501Z,6.83
2018-08-25T15:54:12.899Z,7.30
2018-08-25T15:56:41.418Z,9.33
2018-08-25T15:59:09.998Z,10.10
2018-08-25T16:01:38.781Z,7.17
2018-08-25T16:04:07.510Z,7.17
2018-08-25T16:06:36.406Z,8.53
2018-08-25T16:09:08.117Z,7.70
2018-08-25T16:11:37.209Z,7.13
2018-08-25T16:14:05.877Z,8.00
2018-08-25T16:16:34.586Z,7.67
2018-08-25T16:19:03.320Z,7.50
2018-08-25T16:21:31.967Z,7.13
2018-08-25T16:24:00.842Z,7.13
2018-08-25T16:26:30.259Z,7.10
2018-08-25T16:28:59.139Z,8.30
2018-08-25T16:31:27.937Z,8.20
2018-08-25T16:33:56.597Z,9.23
2018-08-25T16:36:25.301Z,9.30
2018-08-25T16:38:54.093Z,9.80
2018-08-25T16:41:23.059Z,6.97
2018-08-25T16:43:51.714Z,7.57
2018-08-25T16:46:20.420Z,9.30
2018-08-25T16:48:49.009Z,7.15
2018-08-25T16:51:17.466Z,8.30
2018-08-25T16:53:46.245Z,10.50
2018-08-25T16:56:14.790Z,7.23
2018-08-25T16:58:43.261Z,7.30
2018-08-25T17:01:12.123Z,8.90
2018-08-25T17:03:41.061Z,7.73
2018-08-25T17:06:10.133Z,7.27
2018-08-25T17:08:39.258Z,8.07
2018-08-25T17:11:08.039Z,9.03
2018-08-25T17:13:36.730Z,7.97
2018-08-25T17:16:05.750Z,12.73
2018-08-25T17:18:34.414Z,8.33
2018-08-25T17:21:03.381Z,7.00
2018-08-25T17:23:32.163Z,6.70
2018-08-25T17:26:01.219Z,7.63
2018-08-25T17:28:30.376Z,8.50
2018-08-25T17:30:59.725Z,10.33
2018-08-25T17:33:28.910Z,7.00
2018-08-25T17:35:57.938Z,7.57
2018-08-25T17:38:26.957Z,6.80
2018-08-25T17:40:59.764Z,8.67
2018-08-25T17:43:29.037Z,7.27
2018-08-25T17:45:58.129Z,7.30
2018-08-25T17:48:26.823Z,7.10
2018-08-25T17:50:55.837Z,7.60
2018-08-25T17:53:30.185Z,8.50
2018-08-25T17:56:00.141Z,8.17
2018-08-25T17:58:32.743Z,9.20
2018-08-25T18:01:16.240Z,7.30
2018-08-25T18:04:01.192Z,7.53
2018-08-25T18:09:28.754Z,8.70
2018-08-25T18:11:57.554Z,13.00
2018-08-25T18:14:26.815Z,10.17
2018-08-25T18:16:56.060Z,10.00
2018-08-25T18:19:25.141Z,9.13
2018-08-25T18:21:54.469Z,8.43
2018-08-25T18:24:23.491Z,9.40
2018-08-25T18:26:55.090Z,8.37
2018-08-25T18:29:24.389Z,9.63
2018-08-25T18:31:53.803Z,8.67
2018-08-25T18:34:22.874Z,8.53
2018-08-25T18:36:51.709Z,8.00
2018-08-25T18:39:20.434Z,8.20
2018-08-25T18:41:49.320Z,7.30
2018-08-25T18:44:17.805Z,7.00
2018-08-25T18:46:46.343Z,7.00
2018-08-25T18:49:15.181Z,7.30
2018-08-25T18:51:44.965Z,8.78
2018-08-25T18:54:14.191Z,7.17
2018-08-25T18:56:43.333Z,8.83
2018-08-25T18:59:12.282Z,9.47
2018-08-25T19:01:42.028Z,8.10
2018-08-25T19:04:12.468Z,8.90
2018-08-25T19:09:40.352Z,7.90
2018-08-25T19:12:18.466Z,8.20
2018-08-25T19:14:48.091Z,8.10
2018-08-25T19:17:24.168Z,7.70
2018-08-25T19:19:53.815Z,8.30
2018-08-25T19:22:23.633Z,9.80
2018-08-25T19:24:58.330Z,7.87
2018-08-25T19:27:30.332Z,9.43
2018-08-25T19:29:59.302Z,9.10
2018-08-25T19:32:28.696Z,9.33
2018-08-25T19:34:57.563Z,8.50
2018-08-25T19:37:26.797Z,7.40
2018-08-25T19:39:55.905Z,8.07
2018-08-25T19:42:24.805Z,9.87
2018-08-25T19:44:53.412Z,11.70
2018-08-25T19:47:22.589Z,7.90
2018-08-25T19:49:52.437Z,7.90
2018-08-25T19:52:21.850Z,9.23
2018-08-25T19:54:51.239Z,9.27
2018-08-25T19:57:20.060Z,8.80
2018-08-25T19:59:49.912Z,8.17
2018-08-25T20:02:19.978Z,8.20
2018-08-25T20:04:49.228Z,10.80
2018-08-25T20:07:24.291Z,7.37
2018-08-25T20:09:55.459Z,10.80
2018-08-25T20:12:26.378Z,8.30
2018-08-25T20:14:55.699Z,9.03
2018-08-25T20:17:24.578Z,7.30
2018-08-25T20:19:53.848Z,8.10
2018-08-25T20:22:23.286Z,8.40
2018-08-25T20:24:58.294Z,8.83
2018-08-25T20:27:28.059Z,7.27
2018-08-25T20:32:46.410Z,10.73
2018-08-25T20:35:16.132Z,8.20
2018-08-25T20:37:46.189Z,7.37
2018-08-25T20:40:17.488Z,9.30
2018-08-25T20:42:46.524Z,8.07
2018-08-25T20:45:15.679Z,7.80
2018-08-25T20:47:44.878Z,10.90
2018-08-25T20:50:14.699Z,7.97
2018-08-25T20:52:44.420Z,7.60
2018-08-25T20:55:14.066Z,9.00
2018-08-25T20:57:43.278Z,8.50
2018-08-25T21:00:27.094Z,8.37
2018-08-25T21:03:00.052Z,8.00
2018-08-25T21:05:35.392Z,9.65
2018-08-25T21:08:18.492Z,7.40
2018-08-25T21:10:51.654Z,8.00
2018-08-25T21:13:25.859Z,9.33
2018-08-25T21:15:55.869Z,7.90
2018-08-25T21:18:27.774Z,8.37
2018-08-25T21:21:02.162Z,8.83
2018-08-25T21:23:41.297Z,9.53
2018-08-25T21:26:10.628Z,10.17
2018-08-25T21:28:42.047Z,8.90
2018-08-25T21:31:11.364Z,11.00
2018-08-25T21:33:41.769Z,10.10
2018-08-25T21:36:11.320Z,13.43
2018-08-25T21:38:42.140Z,14.60
2018-08-25T21:41:12.774Z,11.65
2018-08-25T21:43:50.342Z,13.33
2018-08-25T21:46:20.065Z,10.47
2018-08-25T21:48:50.196Z,9.50
2018-08-25T21:51:20.293Z,8.83
2018-08-25T21:53:50.100Z,8.73
2018-08-25T21:56:19.988Z,9.90
2018-08-25T21:58:54.059Z,9.57
2018-08-25T22:01:23.641Z,8.48
2018-08-25T22:03:54.155Z,9.80
2018-08-25T22:06:23.291Z,11.17
2018-08-25T22:08:56.491Z,13.30
2018-08-25T22:11:25.770Z,12.80
2018-08-25T22:13:54.945Z,11.73
2018-08-25T22:16:24.398Z,11.30
2018-08-25T22:18:53.378Z,11.67
2018-08-25T22:21:26.027Z,9.00
2018-08-25T22:23:54.870Z,9.53
2018-08-25T22:26:24.241Z,8.40
2018-08-25T22:28:53.916Z,9.90
2018-08-25T22:31:23.233Z,9.17
2018-08-25T22:33:51.855Z,8.00
2018-08-25T22:36:20.734Z,7.63
2018-08-25T22:38:49.909Z,9.43
2018-08-25T22:41:18.947Z,8.10
2018-08-25T22:43:47.749Z,9.23
2018-08-25T22:46:16.734Z,8.90
2018-08-25T22:48:45.565Z,8.33
2018-08-25T22:51:14.549Z,7.93
2018-08-25T22:53:43.488Z,8.15
2018-08-25T22:56:12.811Z,7.63
2018-08-25T22:58:41.544Z,7.67
2018-08-25T23:01:10.719Z,8.00
2018-08-25T23:03:40.472Z,8.85
2018-08-25T23:06:09.125Z,8.15
2018-08-25T23:08:38.270Z,8.17
2018-08-25T23:11:07.496Z,8.47
2018-08-25T23:13:36.375Z,11.10
2018-08-25T23:16:05.340Z,10.03
2018-08-25T23:18:34.417Z,13.00
2018-08-25T23:21:03.237Z,10.10
2018-08-25T23:23:32.005Z,8.60
2018-08-25T23:26:00.847Z,7.15
2018-08-25T23:28:29.686Z,8.67
2018-08-25T23:30:58.274Z,7.57
2018-08-25T23:33:27.285Z,7.77
2018-08-25T23:35:56.412Z,9.63
2018-08-25T23:38:25.470Z,8.40
2018-08-25T23:40:54.369Z,7.60
2018-08-25T23:43:23.524Z,7.67
2018-08-25T23:45:52.911Z,9.03
2018-08-25T23:48:21.789Z,10.60
2018-08-25T23:50:50.572Z,10.03
2018-08-25T23:53:19.744Z,10.53
2018-08-25T23:55:48.446Z,10.97
2018-08-25T23:58:17.432Z,11.27
